Time;durP1;ratioP1;P1;durP2;ratioP2;P2;SDS_P1;SDS_P2;PMS_P1;PMS_P2;Temp;Humidity;BMP_temperature;BMP_pressure;BME280_temperature;BME280_humidity;BME280_pressure;Samples;Min_cycle;Max_cycle;Signal;HPM_P1;HPM_P2
2021/08/01 19:20:17;;;;;;;2.55;2.35;;;;;;;22.94;59.31;98987.84;5189561;27;20095;31
2021/08/01 19:22:46;;;;;;;3.95;2.55;;;;;;;22.77;60.29;98975.62;5210849;27;35026;-89
2021/08/01 19:25:14;;;;;;;5.55;2.30;;;;;;;22.79;59.82;98979.03;5194753;27;34265;-89
2021/08/01 19:27:44;;;;;;;2.90;2.60;;;;;;;22.82;60.04;98989.47;5177100;27;33976;-89
2021/08/01 19:30:13;;;;;;;2.60;2.37;;;;;;;22.94;59.75;98983.34;5194964;27;33675;-88
2021/08/01 19:32:45;;;;;;;3.85;2.70;;;;;;;22.82;59.70;99002.72;5160654;27;32717;-88
2021/08/01 19:35:16;;;;;;;2.65;2.42;;;;;;;22.79;59.76;99013.50;5194490;27;33314;-89
2021/08/01 19:37:45;;;;;;;2.65;2.42;;;;;;;22.75;59.94;99033.16;5177981;27;34120;-89
2021/08/01 19:40:13;;;;;;;4.70;2.45;;;;;;;22.74;60.09;99029.69;5177022;27;34353;-89
2021/08/01 19:42:42;;;;;;;4.50;2.60;;;;;;;22.51;60.34;99039.97;5177881;27;33266;-90
2021/08/01 19:45:11;;;;;;;2.87;2.37;;;;;;;22.51;60.39;99032.00;5177396;27;33348;-90
2021/08/01 19:47:39;;;;;;;2.70;2.45;;;;;;;22.53;60.20;99025.69;5177947;27;35392;-89
2021/08/01 19:50:08;;;;;;;2.58;2.37;;;;;;;22.44;60.45;99022.72;5160828;27;33693;-91
2021/08/01 19:52:38;;;;;;;3.72;2.50;;;;;;;22.50;60.26;99015.25;5179045;27;32938;-92
2021/08/01 19:55:14;;;;;;;2.20;2.00;;;;;;;22.37;60.25;99030.16;5180039;27;34305;-91
2021/08/01 19:58:03;;;;;;;3.25;2.33;;;;;;;22.50;60.01;99033.81;5184728;27;34351;-91
2021/08/01 20:00:53;;;;;;;4.78;2.40;;;;;;;22.45;59.83;99017.31;5184873;27;34379;-91
2021/08/01 20:03:42;;;;;;;2.67;2.25;;;;;;;22.43;59.94;99013.91;5185311;27;34204;-90
2021/08/01 20:06:10;;;;;;;2.67;2.47;;;;;;;22.37;60.16;99013.44;5179218;27;33596;-91
2021/08/01 20:09:00;;;;;;;2.75;2.35;;;;;;;22.26;60.04;99027.31;5182007;27;33952;-90
2021/08/01 20:11:27;;;;;;;3.47;2.80;;;;;;;22.15;60.62;99032.41;5179058;27;33807;-91
2021/08/01 20:13:59;;;;;;;;;;;;;;;22.06;60.64;99027.66;5162849;27;32856;-90
2021/08/01 20:16:43;;;;;;;2.20;2.00;;;;;;;22.15;60.69;99043.00;5138860;27;33933;-89
2021/08/01 20:19:11;;;;;;;6.62;2.75;;;;;;;22.12;60.32;99035.25;5153267;27;33924;-92
2021/08/01 20:22:03;;;;;;;3.37;2.53;;;;;;;21.85;61.48;99045.63;5140176;27;33705;-91
2021/08/01 20:24:33;;;;;;;3.28;2.97;;;;;;;22.10;60.59;99048.59;5120712;27;33257;-91
2021/08/01 20:27:21;;;;;;;4.47;3.05;;;;;;;22.03;61.12;99060.47;5154430;27;33754;-91
2021/08/01 20:29:54;;;;;;;4.35;2.58;;;;;;;22.01;60.95;99069.44;5138283;27;33707;-90
2021/08/01 20:32:22;;;;;;;2.87;2.58;;;;;;;22.08;60.51;99070.78;5153381;27;33706;-91
2021/08/01 20:34:50;;;;;;;2.80;2.60;;;;;;;22.04;60.77;99070.09;5136560;27;32917;-91
2021/08/01 20:37:54;;;;;;;3.92;2.85;;;;;;;21.97;60.94;99060.81;5100311;28;33356;-91
2021/08/01 20:40:22;;;;;;;4.87;2.80;;;;;;;21.74;61.47;99066.56;5095257;28;33933;-91
2021/08/01 20:42:56;;;;;;;2.95;2.40;;;;;;;21.84;61.19;99070.41;5095879;28;33626;-91
2021/08/01 20:45:24;;;;;;;3.83;2.70;;;;;;;21.93;61.17;99069.88;5095363;28;33012;-91
2021/08/01 20:48:15;;;;;;;4.22;2.67;;;;;;;21.78;61.42;99069.84;5099100;28;33551;-91
2021/08/01 20:50:43;;;;;;;3.42;2.65;;;;;;;21.89;60.88;99071.00;5095534;28;33942;-90
2021/08/01 20:53:12;;;;;;;6.87;3.03;;;;;;;21.69;61.21;99076.53;5079189;28;34416;-91
2021/08/01 20:55:40;;;;;;;3.45;2.95;;;;;;;21.67;61.49;99078.41;5111134;28;34029;-91
2021/08/01 20:58:10;;;;;;;4.32;2.85;;;;;;;21.59;61.47;99093.87;5095599;28;33451;-91
2021/08/01 21:00:41;;;;;;;3.60;2.90;;;;;;;21.65;61.41;99097.97;5095344;28;33837;-91
2021/08/01 21:03:17;;;;;;;4.15;2.97;;;;;;;21.68;61.28;99106.56;5113690;28;34429;-91
2021/08/01 21:06:07;;;;;;;3.35;2.42;;;;;;;21.51;61.38;99111.97;5097730;28;32808;-90
2021/08/01 21:08:47;;;;;;;6.15;3.17;;;;;;;22.20;59.90;99118.59;4477583;32;186431;-91
2021/08/01 21:11:17;;;;;;;2.97;2.40;;;;;;;22.20;59.90;99118.59;4443058;32;32745;-91
2021/08/01 21:13:47;;;;;;;3.05;2.50;;;;;;;21.86;60.59;99132.06;4455530;32;33973;-89
2021/08/01 21:16:16;;;;;;;5.30;3.25;;;;;;;21.90;60.14;99132.72;4469302;32;34712;-91
2021/08/01 21:18:44;;;;;;;3.12;2.78;;;;;;;21.89;60.25;99137.19;4442792;32;33342;-92
2021/08/01 21:21:12;;;;;;;4.28;2.37;;;;;;;21.94;59.97;99148.34;4455890;32;34249;-91
2021/08/01 21:23:41;;;;;;;3.45;2.83;;;;;;;21.94;59.76;99163.41;4442868;32;33861;-91
2021/08/01 21:26:10;;;;;;;3.33;2.40;;;;;;;22.00;59.51;99171.00;4442920;32;33866;-92
2021/08/01 21:28:38;;;;;;;3.53;2.83;;;;;;;22.04;59.34;99180.47;4442468;32;34316;-91
2021/08/01 21:31:06;;;;;;;3.65;2.62;;;;;;;21.89;59.79;99171.59;4441877;32;33304;-91
2021/08/01 21:33:34;;;;;;;4.10;2.50;;;;;;;21.79;59.80;99169.50;4455115;32;33659;-92
2021/08/01 21:36:02;;;;;;;2.95;2.65;;;;;;;21.88;59.69;99166.38;4442803;32;34889;-91
2021/08/01 21:38:32;;;;;;;6.07;3.42;;;;;;;21.79;59.77;99158.94;4430352;32;33450;-91
2021/08/01 21:41:00;;;;;;;5.37;2.90;;;;;;;21.70;59.92;99159.44;4469190;32;32630;-92
2021/08/01 21:43:30;;;;;;;2.92;2.60;;;;;;;21.70;60.21;99155.00;4443534;32;33287;-92
2021/08/01 21:46:01;;;;;;;5.00;2.95;;;;;;;21.72;59.65;99152.25;4443619;32;33999;-90
2021/08/01 21:48:29;;;;;;;3.60;2.50;;;;;;;21.77;59.83;99143.12;4443405;32;34235;-91
2021/08/01 21:50:59;;;;;;;5.00;3.15;;;;;;;21.78;59.90;99150.13;4456362;32;34111;-91
2021/08/01 21:53:27;;;;;;;4.32;2.90;;;;;;;21.66;59.97;99158.75;4456678;32;35410;-92
2021/08/01 21:55:56;;;;;;;2.70;2.40;;;;;;;21.58;60.39;99160.97;4443359;32;34756;-91
2021/08/01 21:58:47;;;;;;;4.10;2.70;;;;;;;21.64;60.30;99171.22;4448852;32;33421;-92
2021/08/01 22:01:21;;;;;;;3.60;2.80;;;;;;;21.68;60.04;99170.09;4444280;32;32388;-92
2021/08/01 22:03:51;;;;;;;4.28;2.97;;;;;;;21.61;59.71;99170.53;4456578;32;33259;-92
2021/08/01 22:06:28;;;;;;;5.25;2.65;;;;;;;21.51;60.05;99167.53;4444648;32;34929;-91
2021/08/01 22:08:57;;;;;;;3.37;2.72;;;;;;;21.51;60.46;99165.72;4442271;32;33654;-91
2021/08/01 22:11:25;;;;;;;4.12;2.80;;;;;;;21.49;60.49;99169.38;4430144;32;32796;-91
2021/08/01 22:13:53;;;;;;;3.87;2.70;;;;;;;21.60;59.70;99167.03;4456041;32;34196;-92
2021/08/01 22:16:23;;;;;;;4.20;2.47;;;;;;;21.57;59.95;99161.91;4442789;32;35037;-91
2021/08/01 22:18:51;;;;;;;5.28;2.80;;;;;;;21.58;59.82;99169.75;4438550;32;33054;-92
2021/08/01 22:21:20;;;;;;;4.55;2.90;;;;;;;21.55;59.97;99179.66;4432579;32;33036;-90
2021/08/01 22:23:49;;;;;;;3.25;2.95;;;;;;;21.38;60.67;99179.69;4432875;32;33866;-91
2021/08/01 22:26:17;;;;;;;2.97;2.28;;;;;;;21.49;60.16;99175.53;4445366;32;33768;-91
2021/08/01 22:28:48;;;;;;;2.80;2.60;;;;;;;21.44;59.97;99174.09;4445141;32;33569;-91
2021/08/01 22:31:21;;;;;;;3.15;2.15;;;;;;;21.34;60.09;99175.53;4444899;32;32832;-91
2021/08/01 22:33:52;;;;;;;3.53;2.45;;;;;;;21.40;59.82;99177.81;4432796;32;33787;-91
2021/08/01 22:36:22;;;;;;;5.80;2.55;;;;;;;21.37;60.06;99178.84;4432652;32;34082;-90
2021/08/01 22:38:52;;;;;;;4.60;2.58;;;;;;;21.32;59.47;99180.88;4432145;32;33287;-91
2021/08/01 22:41:20;;;;;;;3.22;2.30;;;;;;;21.45;59.31;99175.78;4445079;32;33482;-91
2021/08/01 22:43:49;;;;;;;7.22;2.50;;;;;;;21.30;59.35;99174.81;4432139;32;34382;-90
2021/08/01 22:46:16;;;;;;;6.07;2.67;;;;;;;21.40;59.44;99175.19;4445164;32;34185;-89
2021/08/01 22:48:45;;;;;;;4.62;2.25;;;;;;;21.29;59.68;99177.56;4432063;32;33824;-89
2021/08/01 22:51:13;;;;;;;3.12;2.15;;;;;;;21.40;58.97;99178.69;4445022;32;34244;-89
2021/08/01 22:53:42;;;;;;;3.05;2.45;;;;;;;21.37;59.15;99181.50;4432353;32;33488;-89
2021/08/01 22:56:10;;;;;;;6.15;2.20;;;;;;;21.32;59.10;99190.63;4457570;32;34096;-89
2021/08/01 22:58:39;;;;;;;6.85;2.20;;;;;;;21.39;58.85;99182.28;4444691;32;34983;-90
2021/08/01 23:01:10;;;;;;;3.00;2.50;;;;;;;21.32;58.47;99186.16;4432252;32;33119;-89
2021/08/01 23:04:00;;;;;;;2.80;1.63;;;;;;;21.16;58.93;99185.28;4444902;32;33312;-90
2021/08/01 23:06:28;;;;;;;4.18;2.35;;;;;;;21.10;59.05;99182.97;4445100;32;34942;-89
2021/08/01 23:09:11;;;;;;;6.18;2.20;;;;;;;21.06;59.01;99188.50;4441645;32;33320;-88
2021/08/01 23:11:50;;;;;;;4.03;2.08;;;;;;;20.96;59.60;99189.88;4429634;32;32928;-90
2021/08/01 23:14:27;;;;;;;2.47;1.92;;;;;;;21.06;59.40;99193.78;4429666;32;33297;-89
2021/08/01 23:17:04;;;;;;;5.62;2.15;;;;;;;20.94;59.46;99192.59;4454905;32;35102;-89
2021/08/01 23:19:37;;;;;;;5.82;2.20;;;;;;;20.81;60.37;99207.38;4441888;32;33588;-89
2021/08/01 23:22:06;;;;;;;5.10;2.42;;;;;;;20.85;60.24;99215.06;4429498;32;33013;-89
2021/08/01 23:24:46;;;;;;;2.45;2.25;;;;;;;20.93;59.92;99199.69;4429387;32;33664;-89
2021/08/01 23:27:15;;;;;;;2.58;2.05;;;;;;;21.04;59.31;99201.75;4442127;32;34782;-89
2021/08/01 23:29:43;;;;;;;2.20;1.67;;;;;;;21.13;59.05;99203.97;4428950;32;34354;-89
2021/08/01 23:32:11;;;;;;;4.22;2.00;;;;;;;20.94;59.76;99195.25;4441522;32;33011;-89
2021/08/01 23:34:40;;;;;;;2.20;2.00;;;;;;;21.00;59.36;99194.06;4429465;32;33370;-89
2021/08/01 23:37:08;;;;;;;2.75;1.92;;;;;;;21.09;59.37;99193.59;4429539;32;33916;-89
2021/08/01 23:39:38;;;;;;;3.85;2.17;;;;;;;21.10;59.44;99201.47;4429144;32;34501;-89
2021/08/01 23:42:07;;;;;;;3.22;2.12;;;;;;;21.02;59.26;99215.97;4429526;32;33029;-89
2021/08/01 23:44:37;;;;;;;2.90;2.20;;;;;;;20.85;60.14;99208.91;4429243;32;33198;-89
2021/08/01 23:47:04;;;;;;;4.10;2.15;;;;;;;21.08;59.59;99203.34;4429380;32;34759;-89
2021/08/01 23:49:32;;;;;;;4.70;2.20;;;;;;;21.01;59.86;99201.06;4428885;32;33651;-89
2021/08/01 23:52:07;;;;;;;2.37;2.03;;;;;;;20.89;60.18;99203.38;4429197;32;32884;-89
2021/08/01 23:54:54;;;;;;;3.33;2.50;;;;;;;20.97;59.96;99199.53;4454596;32;33996;-89
2021/08/01 23:57:31;;;;;;;4.05;2.22;;;;;;;21.11;59.34;99197.06;4454286;32;34868;-88
